Time;durP1;ratioP1;P1;durP2;ratioP2;P2;SDS_P1;SDS_P2;PMS_P1;PMS_P2;Temp;Humidity;BMP_temperature;BMP_pressure;BME280_temperature;BME280_humidity;BME280_pressure;Samples;Min_cycle;Max_cycle;Signal;HPM_P1;HPM_P2
2023/08/14 00:00:42;;;;;;;4.40;2.13;;;;;;;21.37;nan;99763.78;12202626;19;19998;-84
2023/08/14 00:04:44;;;;;;;5.60;2.67;;;;;;;21.28;nan;99769.31;12203667;19;20018;-86
2023/08/14 00:08:46;;;;;;;6.40;2.47;;;;;;;21.18;nan;99772.41;12185893;19;20010;-86
2023/08/14 00:12:47;;;;;;;11.90;4.93;;;;;;;21.13;nan;99780.94;12202651;19;20524;-84
2023/08/14 00:16:49;;;;;;;12.63;3.77;;;;;;;21.09;nan;99777.97;12205051;19;20018;-83
2023/08/14 00:20:51;;;;;;;10.20;4.30;;;;;;;21.11;nan;99775.66;12179556;19;20035;-83
2023/08/14 00:24:53;;;;;;;8.00;2.47;;;;;;;21.10;nan;99768.41;12201721;19;20034;-84
2023/08/14 00:28:55;;;;;;;8.30;2.63;;;;;;;21.07;nan;99771.03;12199635;19;20042;-85
2023/08/14 00:32:57;;;;;;;8.43;2.70;;;;;;;21.03;nan;99767.19;12178516;19;20007;-84
2023/08/14 00:36:58;;;;;;;13.57;3.20;;;;;;;20.96;nan;99752.84;12200922;19;20006;-84
2023/08/14 00:41:01;;;;;;;8.77;3.20;;;;;;;21.01;nan;99761.09;12192991;19;20034;-85
2023/08/14 00:45:05;;;;;;;6.88;3.17;;;;;;;20.93;nan;99757.91;12179708;19;20685;-82
2023/08/14 00:49:08;;;;;;;12.43;3.40;;;;;;;20.89;nan;99758.91;12202441;19;21013;-84
2023/08/14 00:53:11;;;;;;;8.27;3.30;;;;;;;20.86;nan;99760.34;12212552;19;20010;-83
2023/08/14 00:57:14;;;;;;;13.32;3.47;;;;;;;20.84;nan;99762.63;12187448;19;20019;-84
2023/08/14 01:01:17;;;;;;;8.23;3.35;;;;;;;20.86;nan;99753.94;12209272;19;20030;-85
2023/08/14 01:05:19;;;;;;;8.18;3.15;;;;;;;20.91;nan;99749.03;12213000;19;20034;-84
2023/08/14 01:09:21;;;;;;;7.37;3.30;;;;;;;20.88;nan;99744.06;12196932;19;20036;-83
2023/08/14 01:13:32;;;;;;;8.13;3.27;;;;;;;20.88;nan;99748.81;12211277;19;20083;-83
2023/08/14 01:17:35;;;;;;;8.68;3.30;;;;;;;20.84;nan;99740.25;12191304;19;20027;-85
2023/08/14 01:22:14;;;;;;;9.27;3.72;;;;;;;20.87;nan;99749.97;12209906;19;20014;-83
2023/08/14 01:26:16;;;;;;;12.93;3.10;;;;;;;20.89;nan;99745.72;12213071;19;20018;-84
2023/08/14 01:30:21;;;;;;;7.57;3.63;;;;;;;20.96;nan;99750.03;12196219;19;20014;-84
2023/08/14 01:34:24;;;;;;;9.38;3.33;;;;;;;21.03;nan;99742.00;12212821;19;20351;-83
2023/08/14 01:38:37;;;;;;;11.05;3.72;;;;;;;21.15;nan;99731.03;12191457;19;20006;-84
2023/08/14 01:42:39;;;;;;;9.63;4.97;;;;;;;21.22;nan;99742.59;12212264;19;20006;-84
2023/08/14 01:46:44;;;;;;;9.20;3.17;;;;;;;21.29;nan;99726.13;12227160;19;20039;-84
2023/08/14 01:50:47;;;;;;;11.18;3.88;;;;;;;21.32;nan;99719.06;12188072;19;20011;-86
2023/08/14 01:54:49;;;;;;;9.25;3.20;;;;;;;21.33;nan;99712.31;12212042;19;20033;-85
2023/08/14 01:58:51;;;;;;;7.40;3.17;;;;;;;21.36;nan;99704.13;12212141;19;20031;-84
2023/08/14 02:02:57;;;;;;;8.95;3.85;;;;;;;21.35;nan;99713.63;12189537;19;20112;-84
2023/08/14 02:06:59;;;;;;;5.78;3.30;;;;;;;21.32;nan;99705.03;12211992;19;20023;-85
2023/08/14 02:11:08;;;;;;;11.23;3.97;;;;;;;21.33;nan;99712.31;12208850;19;20030;-84
2023/08/14 02:15:10;;;;;;;6.60;3.20;;;;;;;21.31;nan;99703.41;12188764;19;20010;-85
2023/08/14 02:19:12;;;;;;;9.02;3.65;;;;;;;21.29;nan;99702.88;12209951;19;20017;-84
2023/08/14 02:23:15;;;;;;;11.40;4.00;;;;;;;21.34;nan;99709.19;12218866;19;20046;-83
2023/08/14 02:27:18;;;;;;;7.45;3.55;;;;;;;21.42;nan;99712.34;12186466;19;20065;-86
2023/08/14 02:31:20;;;;;;;7.78;3.05;;;;;;;21.44;nan;99705.28;12211114;19;20069;-84
2023/08/14 02:35:22;;;;;;;5.00;2.90;;;;;;;21.44;nan;99696.03;12197914;19;20011;-87
2023/08/14 02:39:24;;;;;;;7.27;3.87;;;;;;;21.42;nan;99693.59;12209899;19;20027;-84
2023/08/14 02:43:26;;;;;;;9.93;3.33;;;;;;;21.47;nan;99687.81;12210455;19;20007;-84
2023/08/14 02:47:28;;;;;;;5.93;3.33;;;;;;;21.48;nan;99691.47;12192056;19;20010;-86
2023/08/14 02:51:30;;;;;;;7.50;3.30;;;;;;;21.47;nan;99668.19;12211427;19;20014;-84
2023/08/14 02:55:32;;;;;;;6.57;3.13;;;;;;;21.41;nan;99663.88;12209423;19;20074;-83
2023/08/14 02:59:35;;;;;;;8.65;4.25;;;;;;;21.31;nan;99669.75;12191428;19;20074;-84
2023/08/14 03:03:37;;;;;;;8.50;3.63;;;;;;;21.17;nan;99655.88;12207823;19;20612;-83
2023/08/14 03:07:39;;;;;;;161.67;27.57;;;;;;;21.03;nan;99655.16;12210418;19;20011;-85
2023/08/14 03:11:40;;;;;;;48.40;21.67;;;;;;;20.94;nan;99652.34;12179182;19;20281;-84
2023/08/14 03:15:42;;;;;;;857.50;374.87;;;;;;;20.83;nan;99648.16;12205943;19;20014;-83
2023/08/14 03:19:44;;;;;;;11.17;5.27;;;;;;;20.73;nan;99649.25;12201830;19;20027;-84
2023/08/14 03:23:48;;;;;;;7.70;4.37;;;;;;;20.64;nan;99646.41;12185479;19;20046;-84
2023/08/14 03:27:49;;;;;;;9.98;4.78;;;;;;;20.55;nan;99650.28;12208861;19;20010;-84
2023/08/14 03:31:51;;;;;;;6.90;4.80;;;;;;;20.48;nan;99651.53;12199541;19;20454;-84
2023/08/14 03:35:54;;;;;;;9.20;4.57;;;;;;;20.44;nan;99652.53;12174835;19;20074;-84
2023/08/14 03:39:56;;;;;;;7.93;4.80;;;;;;;20.37;nan;99652.94;12199188;19;20030;-84
2023/08/14 03:43:58;;;;;;;8.40;4.33;;;;;;;20.32;nan;99650.31;12211276;19;20094;-84
2023/08/14 03:48:01;;;;;;;11.15;4.93;;;;;;;20.32;nan;99650.31;12187063;19;20517;-84
2023/08/14 03:52:04;;;;;;;9.43;5.78;;;;;;;20.26;nan;99645.97;12200539;19;20034;-85
2023/08/14 03:56:07;;;;;;;8.93;4.47;;;;;;;20.20;nan;99650.06;12203103;19;20014;-83
2023/08/14 04:00:10;;;;;;;7.43;4.82;;;;;;;20.13;nan;99652.44;12179993;19;20030;-84
2023/08/14 04:04:16;;;;;;;500.40;48.45;;;;;;;20.09;nan;99652.28;12204346;19;20478;-84
2023/08/14 04:08:18;;;;;;;844.75;97.38;;;;;;;20.08;nan;99649.78;12205829;19;20003;-83
2023/08/14 04:12:20;;;;;;;510.95;65.13;;;;;;;20.08;nan;99646.97;12175694;19;20858;-83
2023/08/14 04:16:22;;;;;;;95.20;10.73;;;;;;;20.07;nan;99650.94;12200760;19;20106;-84
2023/08/14 04:20:24;;;;;;;677.22;56.72;;;;;;;20.21;nan;99652.53;12177838;19;20015;-83
2023/08/14 04:24:26;;;;;;;483.37;40.63;;;;;;;20.14;nan;99645.72;12207267;19;20469;-84
2023/08/14 04:28:28;;;;;;;320.17;53.07;;;;;;;20.15;nan;99647.38;12214462;19;20007;-83
2023/08/14 04:32:30;;;;;;;21.80;16.27;;;;;;;20.20;nan;99642.47;12188492;19;20011;-84
2023/08/14 04:36:34;;;;;;;5.50;4.10;;;;;;;20.25;nan;99635.91;12210032;19;20187;-83
2023/08/14 04:40:37;;;;;;;9.32;4.60;;;;;;;20.32;nan;99636.31;12206818;19;20628;-84
2023/08/14 04:44:40;;;;;;;8.63;4.38;;;;;;;20.42;nan;99630.44;12192533;19;20006;-84
2023/08/14 04:48:42;;;;;;;8.67;4.50;;;;;;;20.55;nan;99633.50;12210906;19;20007;-83
2023/08/14 04:52:44;;;;;;;12.20;4.60;;;;;;;20.61;nan;99635.03;12208803;19;20487;-83
2023/08/14 04:56:45;;;;;;;17.37;13.17;;;;;;;20.68;nan;99639.03;12187378;19;20014;-84
2023/08/14 05:00:47;;;;;;;10.23;4.90;;;;;;;20.76;nan;99644.97;12209719;19;20035;-84
2023/08/14 05:04:50;;;;;;;8.80;4.22;;;;;;;20.79;nan;99645.19;12211079;19;20717;-84
2023/08/14 05:08:52;;;;;;;11.53;4.40;;;;;;;20.89;nan;99653.28;12194343;19;20121;-84
2023/08/14 05:12:55;;;;;;;8.93;4.40;;;;;;;21.00;nan;99656.66;12212096;19;20022;-83
2023/08/14 05:16:57;;;;;;;24.20;9.65;;;;;;;21.10;nan;99656.34;12211025;19;20014;-84
2023/08/14 05:20:59;;;;;;;9.75;4.55;;;;;;;21.20;nan;99665.59;12186857;19;20011;-84
2023/08/14 05:25:02;;;;;;;10.00;4.47;;;;;;;21.26;nan;99667.09;12212837;19;20284;-84
2023/08/14 05:29:04;;;;;;;9.43;4.80;;;;;;;21.33;nan;99664.66;12212809;19;20018;-83
2023/08/14 05:33:07;;;;;;;9.57;5.07;;;;;;;21.43;nan;99657.97;12187988;19;20007;-82
2023/08/14 05:37:09;;;;;;;639.43;168.13;;;;;;;21.38;nan;99645.72;12207806;19;20010;-83
2023/08/14 05:41:11;;;;;;;638.13;63.23;;;;;;;21.43;nan;99644.75;12208702;19;20259;-83
2023/08/14 05:45:12;;;;;;;781.47;94.57;;;;;;;21.58;nan;99649.91;12197739;19;20017;-83
2023/08/14 05:49:14;;;;;;;1336.60;159.03;;;;;;;21.86;nan;99658.00;12211693;19;20264;-84
2023/08/14 05:53:16;;;;;;;1325.97;192.50;;;;;;;22.06;nan;99651.75;12210769;19;20156;-83
2023/08/14 05:57:19;;;;;;;44.17;9.27;;;;;;;22.22;nan;99645.66;12186479;19;20359;-83
2023/08/14 06:01:20;;;;;;;7.90;5.47;;;;;;;22.37;nan;99645.16;12212107;19;20011;-82
2023/08/14 06:05:22;;;;;;;1999.90;999.90;;;;;;;22.48;nan;99642.81;12205506;19;20010;-83
2023/08/14 06:09:26;;;;;;;1999.90;999.90;;;;;;;22.58;nan;99636.88;12211812;19;20010;-82
2023/08/14 06:13:27;;;;;;;1999.90;999.90;;;;;;;22.61;nan;99649.41;12209035;19;20342;-82
2023/08/14 06:17:29;;;;;;;1999.90;999.90;;;;;;;22.64;nan;99662.78;12185832;19;20471;-82
2023/08/14 06:21:33;;;;;;;253.38;234.63;;;;;;;22.69;nan;99654.97;12204548;19;20525;-82
2023/08/14 06:25:35;;;;;;;1999.90;999.90;;;;;;;22.69;nan;99642.94;12205581;19;20019;-82
2023/08/14 06:29:36;;;;;;;1999.90;999.90;;;;;;;22.82;nan;99633.47;12188915;19;20892;-82
2023/08/14 06:33:38;;;;;;;1999.90;999.90;;;;;;;22.94;nan;99649.63;12205874;19;20010;-82
2023/08/14 06:37:40;;;;;;;1999.90;999.90;;;;;;;23.00;nan;99648.31;12205195;19;20025;-81
2023/08/14 06:41:42;;;;;;;1999.90;999.90;;;;;;;23.02;nan;99645.16;12179222;19;20019;-82
2023/08/14 06:45:47;;;;;;;1999.90;999.90;;;;;;;23.03;nan;99642.03;12208605;19;20839;-82
2023/08/14 06:49:49;;;;;;;1999.90;999.90;;;;;;;23.02;nan;99629.13;12202441;19;20059;-82
2023/08/14 06:53:51;;;;;;;180.60;161.10;;;;;;;23.14;nan;99629.25;12181167;19;20059;-82
2023/08/14 06:57:55;;;;;;;6.55;3.63;;;;;;;23.28;nan;99633.78;12202196;19;20265;-82
2023/08/14 07:01:57;;;;;;;7.25;3.08;;;;;;;23.39;nan;99626.63;12201491;19;20022;-82
2023/08/14 07:05:59;;;;;;;6.60;3.70;;;;;;;23.70;nan;99619.81;12181605;19;20037;-82
2023/08/14 07:10:00;;;;;;;6.27;3.10;;;;;;;23.98;nan;99620.94;12201368;19;20011;-82
2023/08/14 07:14:03;;;;;;;5.78;3.50;;;;;;;24.13;nan;99615.84;12203579;19;20014;-82
2023/08/14 07:18:04;;;;;;;7.10;3.90;;;;;;;24.29;nan;99619.63;12197593;19;20011;-82
2023/08/14 07:22:06;;;;;;;10.50;3.27;;;;;;;24.46;nan;99608.22;12206821;19;20018;-82
2023/08/14 07:26:11;;;;;;;8.70;3.83;;;;;;;24.78;nan;99631.91;12203482;19;20259;-82
2023/08/14 07:30:14;;;;;;;5.18;3.25;;;;;;;24.91;nan;99624.28;12182524;19;20010;-82
2023/08/14 07:34:16;;;;;;;6.05;3.10;;;;;;;24.98;nan;99615.22;12201510;19;20373;-82
2023/08/14 07:38:17;;;;;;;5.82;3.03;;;;;;;24.93;nan;99621.94;12204771;19;20011;-82
2023/08/14 07:42:19;;;;;;;10.00;3.13;;;;;;;24.88;nan;99624.97;12179501;19;20006;-82
2023/08/14 07:46:22;;;;;;;757.78;74.85;;;;;;;25.18;nan;99625.63;12205225;19;20401;-83
2023/08/14 07:50:23;;;;;;;5.65;3.38;;;;;;;25.60;nan;99622.53;12182752;19;20027;-82
2023/08/14 07:54:25;;;;;;;8.10;3.70;;;;;;;25.94;nan;99625.16;12203196;19;20007;-82
2023/08/14 07:58:27;;;;;;;9.50;3.17;;;;;;;26.14;nan;99619.34;12205608;19;20508;-83
2023/08/14 08:02:29;;;;;;;4.93;2.83;;;;;;;26.41;nan;99627.34;12187402;19;20106;-83
2023/08/14 08:06:31;;;;;;;6.05;3.20;;;;;;;26.64;nan;99642.56;12210049;19;20014;-83
2023/08/14 08:10:44;;;;;;;5.28;3.28;;;;;;;26.78;nan;99659.09;12201606;19;20070;-83
2023/08/14 08:14:45;;;;;;;7.53;3.10;;;;;;;26.76;nan;99672.75;12180349;19;20011;-83
2023/08/14 08:18:50;;;;;;;6.03;3.60;;;;;;;26.80;nan;99670.84;12205898;19;20015;-83
2023/08/14 08:22:52;;;;;;;6.32;3.58;;;;;;;26.90;nan;99672.34;12205695;19;20003;-83
2023/08/14 08:26:53;;;;;;;7.60;3.63;;;;;;;27.02;nan;99664.56;12182400;19;20002;-85
2023/08/14 08:30:55;;;;;;;6.10;3.90;;;;;;;27.16;nan;99658.50;12200787;19;20010;-84
2023/08/14 08:34:57;;;;;;;9.85;3.30;;;;;;;27.36;nan;99661.41;12201206;19;20002;-84
2023/08/14 08:38:59;;;;;;;15.68;4.75;;;;;;;27.48;nan;99655.63;12179412;19;20032;-83
2023/08/14 08:43:02;;;;;;;6.82;3.40;;;;;;;27.50;nan;99656.91;12201791;19;20371;-84
2023/08/14 08:47:09;;;;;;;7.38;3.30;;;;;;;27.57;nan;99672.41;12203199;19;20018;-83
2023/08/14 08:51:11;;;;;;;6.72;3.65;;;;;;;27.55;nan;99672.81;12179228;19;20082;-84
2023/08/14 08:55:13;;;;;;;8.27;4.28;;;;;;;27.57;nan;99673.22;12201026;19;20351;-83
2023/08/14 08:59:18;;;;;;;6.03;3.47;;;;;;;27.64;nan;99664.13;12204172;19;20035;-84
2023/08/14 09:03:23;;;;;;;5.97;3.80;;;;;;;27.73;nan;99673.22;12182285;19;20018;-84
2023/08/14 09:07:25;;;;;;;6.50;3.85;;;;;;;27.86;nan;99657.78;12202767;19;20010;-84
2023/08/14 09:11:29;;;;;;;8.30;4.15;;;;;;;27.96;nan;99656.38;12183488;19;20024;-84
2023/08/14 09:15:31;;;;;;;7.28;3.92;;;;;;;28.07;nan;99656.59;12215313;19;20019;-84
2023/08/14 09:19:33;;;;;;;10.15;4.05;;;;;;;28.23;nan;99673.53;12212803;19;20015;-85
2023/08/14 09:23:41;;;;;;;7.45;3.55;;;;;;;28.31;nan;99666.81;12192434;19;20669;-85
2023/08/14 09:27:43;;;;;;;8.20;4.68;;;;;;;28.28;nan;99676.06;12213021;19;20038;-85
2023/08/14 09:31:45;;;;;;;7.45;4.68;;;;;;;28.67;nan;99667.56;12210395;19;20003;-85
2023/08/14 09:35:52;;;;;;;8.23;4.25;;;;;;;29.05;nan;99656.16;12189122;19;20022;-83
2023/08/14 09:40:14;;;;;;;7.57;3.65;;;;;;;29.34;nan;99665.19;12210488;19;20010;-84
2023/08/14 09:44:20;;;;;;;6.17;4.07;;;;;;;29.51;nan;99670.31;12214068;19;20032;-84
2023/08/14 09:48:38;;;;;;;7.05;3.50;;;;;;;29.75;nan;99662.59;12190538;19;20279;-85
2023/08/14 09:52:42;;;;;;;5.55;3.40;;;;;;;30.18;nan;99655.47;12213817;19;20356;-84
2023/08/14 09:56:44;;;;;;;7.72;4.10;;;;;;;30.38;nan;99656.19;12192194;19;20066;-84
2023/08/14 10:00:47;;;;;;;7.82;4.20;;;;;;;30.71;nan;99648.81;12210503;19;20183;-84
2023/08/14 10:04:50;;;;;;;5.50;4.03;;;;;;;31.14;nan;99654.94;12211546;19;20018;-86
2023/08/14 10:08:56;;;;;;;4.25;2.90;;;;;;;31.38;nan;99641.34;12188271;19;20067;-84
2023/08/14 10:13:05;;;;;;;4.28;3.00;;;;;;;31.65;nan;99633.41;12211838;19;20019;-84
2023/08/14 10:17:20;;;;;;;4.72;3.17;;;;;;;32.05;nan;99638.16;12212511;19;20042;-84
2023/08/14 10:21:26;;;;;;;6.93;3.03;;;;;;;32.32;nan;99647.22;12185505;19;20042;-84
2023/08/14 10:25:28;;;;;;;7.35;3.40;;;;;;;32.43;nan;99653.81;12211187;19;20014;-84
2023/08/14 10:29:32;;;;;;;5.78;3.47;;;;;;;32.63;nan;99650.63;12189556;19;20776;-88
2023/08/14 10:33:34;;;;;;;4.70;3.08;;;;;;;32.57;nan;99650.22;12211484;19;20014;-85
2023/08/14 10:37:47;;;;;;;5.35;3.08;;;;;;;32.58;nan;99640.44;12211824;19;20053;-85
2023/08/14 10:42:05;;;;;;;8.05;2.80;;;;;;;32.64;nan;99644.53;12185720;19;20458;-84
2023/08/14 10:46:09;;;;;;;5.10;3.55;;;;;;;32.78;nan;99648.63;12212311;19;20011;-84
2023/08/14 10:50:18;;;;;;;5.60;3.20;;;;;;;32.61;nan;99653.06;12209330;19;20465;-84
2023/08/14 10:54:21;;;;;;;4.43;3.00;;;;;;;32.79;nan;99661.69;12188826;19;20679;-84
2023/08/14 10:58:30;;;;;;;6.97;3.38;;;;;;;33.05;nan;99667.06;12208202;19;20010;-84
2023/08/14 11:02:40;;;;;;;6.30;3.08;;;;;;;32.89;nan;99664.53;12186646;19;20021;-86
2023/08/14 11:07:02;;;;;;;5.72;3.13;;;;;;;32.76;nan;99668.19;12208962;19;20010;-84
2023/08/14 11:11:05;;;;;;;8.15;3.33;;;;;;;32.45;nan;99676.22;12208044;19;20042;-83
2023/08/14 11:15:08;;;;;;;5.60;3.65;;;;;;;32.30;nan;99683.88;12187970;19;20036;-83
2023/08/14 11:19:10;;;;;;;6.07;3.83;;;;;;;32.59;nan;99676.28;12208976;19;20031;-85
2023/08/14 11:23:12;;;;;;;6.40;3.97;;;;;;;32.78;nan;99680.00;12210019;19;20012;-85
2023/08/14 11:27:14;;;;;;;;;;;;;;;32.88;nan;99682.06;12186764;19;20613;-84
2023/08/14 11:31:16;;;;;;;6.82;3.75;;;;;;;33.07;nan;99676.00;12210642;19;19974;-85
2023/08/14 11:35:22;;;;;;;5.80;3.78;;;;;;;33.70;nan;99673.63;12206739;19;20417;-84
2023/08/14 11:39:25;;;;;;;5.68;3.70;;;;;;;34.27;nan;99672.66;12207970;19;20010;-84
2023/08/14 11:43:27;;;;;;;6.25;3.72;;;;;;;34.63;nan;99675.41;12206154;19;20018;-83
2023/08/14 11:47:32;;;;;;;7.28;4.07;;;;;;;34.42;nan;99668.50;12184931;19;20615;-84
2023/08/14 11:51:36;;;;;;;6.47;3.53;;;;;;;34.28;nan;99671.44;12205040;19;20066;-85
2023/08/14 11:55:37;;;;;;;7.22;4.07;;;;;;;35.18;nan;99673.84;12207561;19;20127;-84
2023/08/14 11:59:39;;;;;;;7.22;3.80;;;;;;;35.80;nan;99661.44;12186343;19;20029;-85
2023/08/14 12:03:42;;;;;;;5.93;4.43;;;;;;;35.92;nan;99657.22;12210815;19;20651;-86
2023/08/14 12:07:43;;;;;;;4.38;3.65;;;;;;;35.63;nan;99648.91;12208497;19;20066;-84
2023/08/14 12:11:45;;;;;;;5.82;4.53;;;;;;;35.75;nan;99642.63;12184355;19;20009;-86
2023/08/14 12:15:47;;;;;;;6.32;3.50;;;;;;;35.64;nan;99641.97;12206424;19;20014;-87
2023/08/14 12:19:53;;;;;;;9.18;4.35;;;;;;;35.58;nan;99638.72;12205763;19;20015;-84
2023/08/14 12:23:55;;;;;;;4.78;3.88;;;;;;;36.11;nan;99635.72;12184507;19;20026;-86
2023/08/14 12:27:58;;;;;;;8.85;3.80;;;;;;;36.68;nan;99632.94;12204599;19;20078;-85
2023/08/14 12:32:00;;;;;;;6.93;3.95;;;;;;;37.23;nan;99624.31;12206165;19;20082;-85
2023/08/14 12:36:03;;;;;;;7.68;4.28;;;;;;;37.00;nan;99620.16;12184673;19;20337;-84
2023/08/14 12:40:09;;;;;;;5.13;4.40;;;;;;;36.26;nan;99626.53;12207383;19;20010;-85
2023/08/14 12:44:11;;;;;;;6.45;4.00;;;;;;;35.96;nan;99640.78;12213774;19;20021;-85
2023/08/14 12:48:13;;;;;;;5.65;3.80;;;;;;;34.83;nan;99647.84;12198010;19;20035;-85
2023/08/14 12:52:15;;;;;;;6.72;3.85;;;;;;;34.32;nan;99651.38;12214038;19;20011;-85
2023/08/14 12:56:17;;;;;;;5.45;3.55;;;;;;;33.99;nan;99662.09;12215630;19;20039;-86
2023/08/14 13:00:21;;;;;;;5.72;3.78;;;;;;;33.62;nan;99656.88;12190310;19;20003;-86
2023/08/14 13:04:23;;;;;;;6.40;3.55;;;;;;;33.06;nan;99651.56;12217093;19;20442;-86
2023/08/14 13:08:27;;;;;;;8.02;3.58;;;;;;;32.78;nan;99654.31;12195347;19;20007;-84
2023/08/14 13:12:29;;;;;;;10.25;3.75;;;;;;;32.38;nan;99644.81;12219767;19;20034;-84
2023/08/14 13:16:31;;;;;;;5.80;3.60;;;;;;;32.29;nan;99641.53;12218665;19;20018;-86
2023/08/14 13:20:33;;;;;;;9.77;4.07;;;;;;;31.96;nan;99643.41;12196816;19;20018;-83
2023/08/14 13:24:35;;;;;;;4.82;3.67;;;;;;;31.58;nan;99645.56;12218032;19;20015;-84
2023/08/14 13:28:37;;;;;;;;;;;;;;;31.08;nan;99639.44;12218745;19;20011;-84
2023/08/14 13:32:39;;;;;;;5.30;3.58;;;;;;;30.70;nan;99627.28;12220742;19;19906;-85
2023/08/14 13:36:41;;;;;;;;;;;;;;;30.56;nan;99624.28;12211989;19;20107;-85
2023/08/14 13:40:43;;;;;;;8.35;4.15;;;;;;;30.66;nan;99610.16;12239867;19;19934;-85
2023/08/14 13:44:45;;;;;;;6.43;4.00;;;;;;;31.76;nan;99592.38;12239988;19;20015;-83
2023/08/14 13:48:46;;;;;;;6.43;3.40;;;;;;;32.27;nan;99581.22;12246256;19;20021;-84
2023/08/14 13:52:48;;;;;;;6.00;3.55;;;;;;;32.33;nan;99576.75;12242049;19;20035;-84
2023/08/14 13:56:50;;;;;;;;;;;;;;;32.15;nan;99568.16;12242599;19;20730;-84
2023/08/14 14:00:57;;;;;;;4.95;3.13;;;;;;;32.09;nan;99550.63;12254494;19;19918;-86
2023/08/14 14:05:03;;;;;;;4.38;3.17;;;;;;;31.69;nan;99560.22;12269191;19;20011;-84
2023/08/14 14:09:05;;;;;;;5.65;3.55;;;;;;;31.16;nan;99552.94;12267717;19;20373;-83
2023/08/14 14:13:07;;;;;;;6.43;3.63;;;;;;;30.68;nan;99546.41;12260586;19;20111;-84
2023/08/14 14:17:09;;;;;;;6.22;3.38;;;;;;;30.36;nan;99522.13;12268727;19;20015;-84
2023/08/14 14:21:10;;;;;;;6.78;3.70;;;;;;;30.15;nan;99514.16;12261435;19;20038;-86
2023/08/14 14:25:15;;;;;;;5.85;3.85;;;;;;;30.08;nan;99507.63;12260503;19;20049;-84
2023/08/14 14:29:17;;;;;;;6.85;3.80;;;;;;;30.00;nan;99514.41;12260074;19;20408;-84
2023/08/14 14:33:19;;;;;;;9.05;3.60;;;;;;;29.91;nan;99520.41;12270311;19;20018;-86
2023/08/14 14:37:20;;;;;;;8.00;3.90;;;;;;;29.75;nan;99527.09;12252007;19;20034;-85
2023/08/14 14:41:22;;;;;;;;;;;;;;;29.92;nan;99522.03;12242586;19;20066;-83
2023/08/14 14:45:24;;;;;;;8.63;3.97;;;;;;;30.78;nan;99523.75;12244633;19;20018;-84
2023/08/14 14:49:39;;;;;;;6.15;3.70;;;;;;;31.04;nan;99542.69;12241000;19;20367;-84
2023/08/14 14:53:41;;;;;;;9.50;3.97;;;;;;;31.24;nan;99546.09;12241655;19;20256;-82
2023/08/14 14:57:43;;;;;;;;;;;;;;;31.33;nan;99537.19;12239054;19;20019;-83
2023/08/14 15:01:45;;;;;;;6.38;3.58;;;;;;;31.53;nan;99537.72;12236468;19;19919;-83
2023/08/14 15:05:50;;;;;;;;;;;;;;;31.68;nan;99528.06;12241350;19;20019;-84
2023/08/14 15:09:52;;;;;;;5.40;4.05;;;;;;;32.03;nan;99520.88;12236097;19;19910;-84
2023/08/14 15:13:54;;;;;;;7.13;4.93;;;;;;;32.21;nan;99518.91;12237850;19;20018;-84
2023/08/14 15:17:57;;;;;;;6.22;3.92;;;;;;;31.95;nan;99522.09;12235715;19;20002;-84
2023/08/14 15:21:59;;;;;;;7.45;3.70;;;;;;;31.72;nan;99517.50;12232278;19;20027;-83
2023/08/14 15:26:01;;;;;;;7.40;3.58;;;;;;;31.26;nan;99517.22;12237802;19;20034;-85
2023/08/14 15:30:03;;;;;;;8.00;3.50;;;;;;;30.82;nan;99526.66;12233933;19;20014;-83
2023/08/14 15:34:05;;;;;;;8.45;3.42;;;;;;;30.37;nan;99535.16;12238222;19;20011;-84
2023/08/14 15:38:10;;;;;;;7.15;3.90;;;;;;;30.03;nan;99527.84;12250930;19;20021;-83
2023/08/14 15:42:12;;;;;;;7.82;4.25;;;;;;;29.73;nan;99542.91;12249374;19;20475;-83
2023/08/14 15:46:13;;;;;;;7.03;3.67;;;;;;;29.41;nan;99534.72;12252136;19;20015;-84
2023/08/14 15:50:16;;;;;;;6.90;3.70;;;;;;;29.14;nan;99541.63;12234558;19;20627;-83
2023/08/14 15:54:17;;;;;;;;;;;;;;;28.84;nan;99537.47;12235358;19;20007;-84
2023/08/14 15:58:19;;;;;;;9.17;3.70;;;;;;;28.68;nan;99544.50;12234141;19;19914;-84
2023/08/14 16:02:21;;;;;;;5.53;3.80;;;;;;;28.55;nan;99541.81;12230861;19;20357;-83
2023/08/14 16:06:23;;;;;;;7.40;3.35;;;;;;;28.50;nan;99535.66;12234624;19;19999;-83
2023/08/14 16:10:25;;;;;;;;;;;;;;;28.42;nan;99537.53;12231309;19;20011;-83
2023/08/14 16:14:27;;;;;;;7.17;4.20;;;;;;;28.40;nan;99539.91;12232585;19;19935;-83
2023/08/14 16:18:29;;;;;;;9.98;3.97;;;;;;;28.46;nan;99541.25;12234489;19;20050;-84
2023/08/14 16:22:30;;;;;;;5.30;3.63;;;;;;;28.58;nan;99531.75;12241352;19;20015;-83
2023/08/14 16:26:33;;;;;;;5.55;3.42;;;;;;;28.73;nan;99530.78;12244433;19;20006;-83
2023/08/14 16:30:35;;;;;;;7.97;3.83;;;;;;;28.91;nan;99521.75;12241072;19;20014;-83
2023/08/14 16:34:37;;;;;;;5.93;4.22;;;;;;;29.17;nan;99523.81;12241487;19;20083;-84
2023/08/14 16:38:39;;;;;;;6.78;3.30;;;;;;;29.35;nan;99522.06;12241486;19;20028;-83
2023/08/14 16:42:41;;;;;;;8.02;3.60;;;;;;;29.50;nan;99526.72;12244032;19;20037;-82
2023/08/14 16:46:42;;;;;;;6.25;3.70;;;;;;;29.85;nan;99536.97;12244896;19;20664;-84
2023/08/14 16:50:44;;;;;;;11.38;3.78;;;;;;;29.94;nan;99534.63;12239346;19;20017;-83
2023/08/14 16:54:46;;;;;;;7.95;4.05;;;;;;;29.87;nan;99530.91;12243884;19;20477;-84
2023/08/14 16:58:48;;;;;;;9.05;3.83;;;;;;;29.58;nan;99529.69;12240327;19;20884;-83
2023/08/14 17:02:50;;;;;;;;;;;;;;;29.46;nan;99542.09;12243216;19;20042;-82
2023/08/14 17:06:52;;;;;;;6.63;3.47;;;;;;;29.48;nan;99534.03;12244552;19;19919;-84
2023/08/14 17:10:54;;;;;;;10.23;4.50;;;;;;;29.45;nan;99537.63;12237069;19;20053;-87
2023/08/14 17:14:56;;;;;;;;;;;;;;;29.28;nan;99533.31;12242592;19;20010;-83
2023/08/14 17:18:58;;;;;;;8.65;4.18;;;;;;;29.18;nan;99522.63;12240778;19;20650;-83
2023/08/14 17:23:00;;;;;;;6.72;3.65;;;;;;;29.07;nan;99526.13;12239119;19;20046;-84
2023/08/14 17:27:02;;;;;;;8.93;4.05;;;;;;;28.95;nan;99520.63;12240548;19;20086;-82
2023/08/14 17:31:04;;;;;;;;;;;;;;;28.89;nan;99519.31;12230695;19;20010;-83
2023/08/14 17:35:07;;;;;;;12.27;4.40;;;;;;;28.80;nan;99518.78;12236358;19;20526;-82
2023/08/14 17:39:10;;;;;;;6.43;3.80;;;;;;;28.69;nan;99518.59;12234064;19;20017;-82
2023/08/14 17:43:12;;;;;;;7.07;4.15;;;;;;;28.54;nan;99506.19;12235760;19;20014;-83
2023/08/14 17:47:14;;;;;;;10.20;4.43;;;;;;;28.42;nan;99509.22;12235776;19;20641;-84
2023/08/14 17:51:16;;;;;;;8.07;4.13;;;;;;;28.33;nan;99509.41;12230166;19;20509;-83
2023/08/14 17:55:17;;;;;;;9.30;4.95;;;;;;;28.46;nan;99515.75;12232761;19;20010;-82
2023/08/14 17:59:19;;;;;;;10.38;4.05;;;;;;;28.68;nan;99510.47;12232370;19;20446;-83
2023/08/14 18:03:21;;;;;;;7.75;4.18;;;;;;;28.51;nan;99523.94;12234025;19;20014;-84
2023/08/14 18:07:23;;;;;;;8.55;4.25;;;;;;;28.26;nan;99523.47;12239650;19;20018;-83
2023/08/14 18:11:25;;;;;;;11.63;3.90;;;;;;;28.04;nan;99530.72;12234835;19;20352;-82
2023/08/14 18:15:27;;;;;;;7.95;4.18;;;;;;;27.82;nan;99526.66;12238794;19;20011;-83
2023/08/14 18:19:28;;;;;;;7.78;4.50;;;;;;;27.60;nan;99530.97;12236733;19;20121;-83
2023/08/14 18:23:30;;;;;;;12.07;4.15;;;;;;;27.40;nan;99530.16;12239222;19;20018;-84
2023/08/14 18:27:32;;;;;;;9.77;4.55;;;;;;;27.17;nan;99534.88;12238983;19;20043;-83
2023/08/14 18:31:34;;;;;;;10.70;4.68;;;;;;;26.93;nan;99542.34;12237182;19;20026;-82
2023/08/14 18:35:37;;;;;;;6.75;4.63;;;;;;;26.69;nan;99551.03;12235338;19;20011;-81
2023/08/14 18:39:39;;;;;;;12.90;5.40;;;;;;;26.49;nan;99548.09;12232947;19;20609;-82
2023/08/14 18:43:41;;;;;;;12.13;4.70;;;;;;;26.35;nan;99548.53;12237353;19;20050;-83
2023/08/14 18:47:43;;;;;;;8.88;4.57;;;;;;;26.18;nan;99548.03;12236393;19;20048;-81
2023/08/14 18:51:44;;;;;;;9.27;4.53;;;;;;;26.03;nan;99552.47;12232039;19;20011;-82
2023/08/14 18:55:47;;;;;;;11.10;4.68;;;;;;;25.87;nan;99555.22;12232830;19;20018;-83
2023/08/14 18:59:49;;;;;;;16.67;4.65;;;;;;;25.74;nan;99553.59;12240302;19;20059;-82
2023/08/14 19:03:51;;;;;;;11.65;4.70;;;;;;;25.59;nan;99560.81;12246639;19;20010;-82
2023/08/14 19:07:53;;;;;;;10.82;4.88;;;;;;;25.42;nan;99565.53;12237361;19;20450;-83
2023/08/14 19:11:55;;;;;;;9.03;5.00;;;;;;;25.29;nan;99571.59;12233242;19;20009;-84